Time;durP1;ratioP1;P1;durP2;ratioP2;P2;SDS_P1;SDS_P2;PMS_P1;PMS_P2;Temp;Humidity;BMP_temperature;BMP_pressure;BME280_temperature;BME280_humidity;BME280_pressure;Samples;Min_cycle;Max_cycle;Signal;HPM_P1;HPM_P2
2023/03/04 00:01:01;;;;;;;0.80;0.80;;;2.90;99.90;;;;;;4424668;32;20089;-75
2023/03/04 00:03:27;;;;;;;1.65;1.17;;;3.00;99.90;;;;;;4425578;32;20445;-76
2023/03/04 00:05:52;;;;;;;0.95;0.82;;;3.00;99.90;;;;;;4424627;32;20065;-76
2023/03/04 00:08:18;;;;;;;0.80;0.80;;;3.00;99.90;;;;;;4424590;32;20080;-78
2023/03/04 00:10:43;;;;;;;0.60;0.60;;;2.90;99.90;;;;;;4426110;32;20152;-74
2023/03/04 00:13:09;;;;;;;1.92;0.90;;;2.80;99.90;;;;;;4425763;32;20165;-76
2023/03/04 00:15:35;;;;;;;2.30;0.85;;;2.80;99.90;;;;;;4425059;32;20081;-76
2023/03/04 00:18:00;;;;;;;0.85;0.70;;;2.80;99.90;;;;;;4426812;32;20065;-76
2023/03/04 00:20:26;;;;;;;11.18;2.50;;;2.80;99.90;;;;;;4428776;32;20089;-76
2023/03/04 00:22:51;;;;;;;1.48;1.27;;;2.80;99.90;;;;;;4426240;32;20085;-76
2023/03/04 00:25:17;;;;;;;1.35;1.25;;;2.80;99.90;;;;;;4426628;32;20083;-77
2023/03/04 00:27:42;;;;;;;0.73;0.73;;;2.80;99.90;;;;;;4427015;32;20113;-76
2023/03/04 00:30:09;;;;;;;1.00;0.90;;;2.80;99.90;;;;;;4427729;32;20497;-76
2023/03/04 00:32:34;;;;;;;1.40;1.17;;;2.80;99.90;;;;;;4427455;32;20065;-75
2023/03/04 00:35:01;;;;;;;1.37;1.27;;;2.80;99.90;;;;;;4428236;32;20123;-76
2023/03/04 00:37:26;;;;;;;1.60;0.90;;;2.90;99.90;;;;;;4427072;32;20147;-77
2023/03/04 00:39:52;;;;;;;0.68;0.68;;;2.90;99.90;;;;;;4424654;32;20097;-76
2023/03/04 00:42:18;;;;;;;1.42;1.23;;;2.90;99.90;;;;;;4425821;32;20058;-76
2023/03/04 00:44:43;;;;;;;0.70;0.70;;;3.00;99.90;;;;;;4426313;32;20069;-76
2023/03/04 00:47:08;;;;;;;1.50;1.40;;;3.10;99.90;;;;;;4424742;32;20125;-77
2023/03/04 00:49:34;;;;;;;1.80;1.58;;;3.10;99.90;;;;;;4426532;32;20109;-79
2023/03/04 00:51:59;;;;;;;0.65;0.65;;;3.10;99.90;;;;;;4427019;32;20163;-78
2023/03/04 00:54:26;;;;;;;1.70;1.60;;;3.20;99.90;;;;;;4426424;32;20604;-77
2023/03/04 00:56:51;;;;;;;2.85;1.33;;;3.10;99.90;;;;;;4425530;32;20065;-78
2023/03/04 00:59:17;;;;;;;0.73;0.73;;;3.20;99.90;;;;;;4426569;32;20504;-77
2023/03/04 01:01:42;;;;;;;1.48;1.23;;;3.20;99.90;;;;;;4427486;32;20547;-77
2023/03/04 01:04:07;;;;;;;0.40;0.40;;;3.20;99.90;;;;;;4427899;32;20101;-77
2023/03/04 01:06:33;;;;;;;4.97;1.98;;;3.20;99.90;;;;;;4427367;32;20212;-75
2023/03/04 01:08:58;;;;;;;2.17;0.93;;;3.20;99.90;;;;;;4426636;32;20110;-78
2023/03/04 01:11:24;;;;;;;0.85;0.85;;;3.30;99.90;;;;;;4426765;32;20198;-78
2023/03/04 01:13:49;;;;;;;1.15;0.95;;;3.30;99.90;;;;;;4427296;32;20069;-79
2023/03/04 01:16:15;;;;;;;1.42;1.33;;;3.20;99.90;;;;;;4426531;32;20054;-77
2023/03/04 01:18:40;;;;;;;3.08;1.33;;;3.20;99.90;;;;;;4426116;32;20446;-77
2023/03/04 01:21:06;;;;;;;8.32;2.00;;;3.30;99.90;;;;;;4428496;32;20591;-76
2023/03/04 01:23:31;;;;;;;0.80;0.80;;;3.30;99.90;;;;;;4427950;32;20081;-77
2023/03/04 01:25:57;;;;;;;3.20;1.42;;;3.30;99.90;;;;;;4428376;32;20057;-76
2023/03/04 01:28:23;;;;;;;3.25;1.77;;;3.30;99.90;;;;;;4428511;32;20586;-76
2023/03/04 01:30:48;;;;;;;1.08;1.05;;;3.30;99.90;;;;;;4427365;32;20121;-76
2023/03/04 01:33:14;;;;;;;0.65;0.65;;;3.30;99.90;;;;;;4427654;32;20077;-79
2023/03/04 01:35:39;;;;;;;0.98;0.68;;;3.30;99.90;;;;;;4423615;32;20074;-77
2023/03/04 01:38:05;;;;;;;2.30;1.65;;;3.30;99.90;;;;;;4424956;32;20089;-78
2023/03/04 01:40:31;;;;;;;1.23;1.12;;;3.40;99.90;;;;;;4422396;32;20196;-76
2023/03/04 01:42:56;;;;;;;2.90;1.62;;;3.40;99.90;;;;;;4425279;32;20541;-78
2023/03/04 01:45:22;;;;;;;1.00;1.00;;;3.40;99.90;;;;;;4425495;32;20061;-77
2023/03/04 01:47:49;;;;;;;0.70;0.70;;;3.50;99.90;;;;;;4427594;32;20454;-77
2023/03/04 01:50:28;;;;;;;0.55;0.55;;;3.50;99.90;;;;;;4423755;32;20445;-76
2023/03/04 01:52:54;;;;;;;7.57;1.35;;;3.50;99.90;;;;;;4428063;32;20505;-77
2023/03/04 01:55:21;;;;;;;2.05;0.98;;;3.50;99.90;;;;;;4427593;32;20081;-77
2023/03/04 01:57:49;;;;;;;0.40;0.40;;;3.60;99.90;;;;;;4428409;32;20085;-77
2023/03/04 02:00:19;;;;;;;1.15;0.95;;;3.60;99.90;;;;;;4427567;32;20077;-74
2023/03/04 02:02:48;;;;;;;1.33;1.23;;;3.60;99.90;;;;;;4425342;32;20089;-78
2023/03/04 02:05:14;;;;;;;2.95;1.67;;;3.60;99.90;;;;;;4421614;32;20450;-77
2023/03/04 02:07:40;;;;;;;0.75;0.75;;;3.50;99.90;;;;;;4424319;32;20066;-78
2023/03/04 02:10:07;;;;;;;2.42;1.05;;;3.60;99.90;;;;;;4421765;32;20160;-77
2023/03/04 02:12:32;;;;;;;0.50;0.50;;;3.60;99.90;;;;;;4424436;32;20082;-77
2023/03/04 02:14:57;;;;;;;5.68;2.28;;;3.60;99.90;;;;;;4425053;32;20085;-77
2023/03/04 02:17:25;;;;;;;2.33;1.40;;;3.60;99.90;;;;;;4425216;32;20061;-77
2023/03/04 02:20:01;;;;;;;0.40;0.40;;;3.70;99.90;;;;;;4424323;32;20561;-74
2023/03/04 02:22:27;;;;;;;0.73;0.73;;;3.70;99.90;;;;;;4421358;32;20488;-75
2023/03/04 02:24:57;;;;;;;0.77;0.77;;;3.70;99.90;;;;;;4421509;32;20085;-74
2023/03/04 02:27:23;;;;;;;10.38;1.67;;;3.70;99.90;;;;;;4421400;32;20081;-74
2023/03/04 02:29:48;;;;;;;0.85;0.68;;;3.70;99.90;;;;;;4421801;32;20100;-73
2023/03/04 02:32:15;;;;;;;0.40;0.40;;;3.80;99.90;;;;;;4419410;32;20603;-74
2023/03/04 02:34:47;;;;;;;3.97;1.48;;;3.90;99.90;;;;;;4422371;32;20077;-73
2023/03/04 02:37:13;;;;;;;0.80;0.80;;;3.90;99.90;;;;;;4421288;32;20066;-73
2023/03/04 02:39:41;;;;;;;5.47;1.08;;;3.90;99.90;;;;;;4414040;32;20077;-70
2023/03/04 02:42:07;;;;;;;1.05;1.02;;;3.90;99.90;;;;;;4420043;32;20081;-70
2023/03/04 02:44:37;;;;;;;4.95;2.35;;;3.90;99.90;;;;;;4421185;32;20116;-72
2023/03/04 02:47:06;;;;;;;1.35;0.93;;;3.80;99.90;;;;;;4423807;32;20093;-70
2023/03/04 02:49:32;;;;;;;2.35;1.08;;;3.80;99.90;;;;;;4423893;32;21267;-71
2023/03/04 02:52:20;;;;;;;0.82;0.82;;;3.80;99.90;;;;;;4422631;32;20691;-70
2023/03/04 02:54:45;;;;;;;0.55;0.55;;;3.80;99.90;;;;;;4421503;32;20073;-72
2023/03/04 02:57:12;;;;;;;0.40;0.40;;;3.80;99.90;;;;;;4422135;32;20098;-72
2023/03/04 02:59:40;;;;;;;0.98;0.98;;;3.80;99.90;;;;;;4424473;32;20152;-70
2023/03/04 03:02:06;;;;;;;0.50;0.50;;;3.90;99.90;;;;;;4421474;32;20089;-70
2023/03/04 03:04:33;;;;;;;0.73;0.73;;;3.90;99.90;;;;;;4423887;32;20069;-70
2023/03/04 03:06:58;;;;;;;1.30;1.02;;;4.00;99.90;;;;;;4422070;32;20109;-72
2023/03/04 03:09:24;;;;;;;2.17;1.25;;;4.00;99.90;;;;;;4422128;32;20163;-70
2023/03/04 03:11:49;;;;;;;1.75;1.08;;;4.00;99.90;;;;;;4422426;32;20555;-70
2023/03/04 03:14:15;;;;;;;2.97;1.58;;;4.00;99.90;;;;;;4424132;32;20073;-71
2023/03/04 03:16:41;;;;;;;3.83;1.02;;;4.10;99.90;;;;;;4422665;32;20426;-74
2023/03/04 03:19:06;;;;;;;0.30;0.30;;;4.00;99.90;;;;;;4421082;32;20523;-70
2023/03/04 03:21:31;;;;;;;4.30;1.75;;;4.00;99.90;;;;;;4420487;32;20143;-70
2023/03/04 03:23:58;;;;;;;0.40;0.40;;;4.00;99.90;;;;;;4420167;32;20138;-71
2023/03/04 03:26:24;;;;;;;0.70;0.70;;;4.00;99.90;;;;;;4419416;32;20430;-72
2023/03/04 03:28:49;;;;;;;0.40;0.40;;;4.00;99.90;;;;;;4421166;32;20092;-71
2023/03/04 03:31:16;;;;;;;9.50;1.37;;;4.00;99.90;;;;;;4421950;32;20061;-70
2023/03/04 03:33:41;;;;;;;2.00;0.98;;;4.00;99.90;;;;;;4421750;32;20567;-72
2023/03/04 03:36:07;;;;;;;0.50;0.50;;;4.00;99.90;;;;;;4420133;32;20125;-71
2023/03/04 03:38:33;;;;;;;0.40;0.40;;;4.00;99.90;;;;;;4421331;32;20094;-71
2023/03/04 03:40:58;;;;;;;1.55;0.98;;;4.00;99.90;;;;;;4418798;32;20061;-72
2023/03/04 03:43:24;;;;;;;0.40;0.40;;;4.10;99.90;;;;;;4420908;32;20097;-73
2023/03/04 03:45:50;;;;;;;0.37;0.37;;;4.10;99.90;;;;;;4426908;32;20109;-72
2023/03/04 03:48:16;;;;;;;1.35;1.25;;;4.10;99.90;;;;;;4434633;32;20459;-71
2023/03/04 03:50:42;;;;;;;0.85;0.85;;;4.10;99.90;;;;;;4435178;32;20085;-72
2023/03/04 03:53:07;;;;;;;0.40;0.40;;;4.00;99.90;;;;;;4437624;32;20113;-70
2023/03/04 03:55:33;;;;;;;0.43;0.43;;;4.00;99.90;;;;;;4438816;32;20101;-69
2023/03/04 03:57:58;;;;;;;0.62;0.62;;;4.00;99.90;;;;;;4438482;32;20084;-69
2023/03/04 04:00:24;;;;;;;1.17;1.08;;;4.00;99.90;;;;;;4438696;32;20437;-72
2023/03/04 04:02:50;;;;;;;0.55;0.55;;;4.00;99.90;;;;;;4439693;32;20076;-69
2023/03/04 04:05:16;;;;;;;1.70;1.02;;;4.00;99.90;;;;;;4439519;32;20093;-72
2023/03/04 04:07:41;;;;;;;0.50;0.50;;;4.00;99.90;;;;;;4439061;32;20127;-70
2023/03/04 04:10:08;;;;;;;2.72;1.48;;;4.10;99.90;;;;;;4439399;32;20433;-71
2023/03/04 04:12:33;;;;;;;3.50;1.73;;;4.10;99.90;;;;;;4438975;32;20065;-70
2023/03/04 04:14:59;;;;;;;0.50;0.50;;;4.10;99.90;;;;;;4440003;32;20311;-70
2023/03/04 04:17:25;;;;;;;3.67;1.58;;;4.10;99.90;;;;;;4439026;32;20069;-71
2023/03/04 04:19:50;;;;;;;0.80;0.80;;;4.10;99.90;;;;;;4438047;32;20426;-71
2023/03/04 04:22:19;;;;;;;0.70;0.70;;;4.20;99.90;;;;;;4439246;32;20512;-72
2023/03/04 04:24:45;;;;;;;0.40;0.40;;;4.20;99.90;;;;;;4437376;32;20124;-72
2023/03/04 04:27:10;;;;;;;7.53;1.98;;;4.20;99.90;;;;;;4437375;32;20148;-71
2023/03/04 04:29:36;;;;;;;1.65;0.98;;;4.20;99.90;;;;;;4438527;32;20512;-70
2023/03/04 04:32:02;;;;;;;2.15;1.15;;;4.20;99.90;;;;;;4437243;32;20069;-70
2023/03/04 04:34:28;;;;;;;0.50;0.50;;;4.20;99.90;;;;;;4438646;32;20074;-70
2023/03/04 04:36:54;;;;;;;0.40;0.40;;;4.20;99.90;;;;;;4440124;32;20139;-71
2023/03/04 04:39:20;;;;;;;0.47;0.47;;;4.30;99.90;;;;;;4438905;32;20105;-72
2023/03/04 04:41:46;;;;;;;8.88;2.15;;;4.30;99.90;;;;;;4439568;32;20132;-70
2023/03/04 04:44:12;;;;;;;1.15;0.90;;;4.30;99.90;;;;;;4438397;32;20181;-70
2023/03/04 04:46:38;;;;;;;0.55;0.55;;;4.30;99.90;;;;;;4437448;32;20559;-73
2023/03/04 04:49:05;;;;;;;0.62;0.62;;;4.30;99.90;;;;;;4439804;32;20088;-71
2023/03/04 04:51:33;;;;;;;0.50;0.50;;;4.40;99.90;;;;;;4437417;32;20076;-71
2023/03/04 04:54:00;;;;;;;0.37;0.37;;;4.40;99.90;;;;;;4436941;32;20519;-70
2023/03/04 04:56:26;;;;;;;0.40;0.40;;;4.40;99.90;;;;;;4439859;32;20108;-70
2023/03/04 04:58:55;;;;;;;0.52;0.52;;;4.40;99.90;;;;;;4440304;32;20147;-70
2023/03/04 05:01:20;;;;;;;0.77;0.77;;;4.40;99.90;;;;;;4438535;32;20606;-69
2023/03/04 05:03:48;;;;;;;0.55;0.55;;;4.40;99.90;;;;;;4439938;32;20150;-70
2023/03/04 05:06:14;;;;;;;0.50;0.50;;;4.40;99.90;;;;;;4441421;32;20084;-69
2023/03/04 05:08:39;;;;;;;0.80;0.80;;;4.40;99.90;;;;;;4439798;32;20088;-72
2023/03/04 05:11:06;;;;;;;0.88;0.88;;;4.40;99.90;;;;;;4438906;32;20097;-69
2023/03/04 05:13:32;;;;;;;0.60;0.60;;;4.50;99.90;;;;;;4439511;32;20061;-71
2023/03/04 05:15:58;;;;;;;0.50;0.50;;;4.50;99.90;;;;;;4438293;32;20529;-69
2023/03/04 05:18:25;;;;;;;3.75;1.98;;;4.50;99.90;;;;;;4438717;32;20858;-72
2023/03/04 05:20:53;;;;;;;0.65;0.65;;;4.50;99.90;;;;;;4437134;32;20105;-70
2023/03/04 05:23:20;;;;;;;1.00;0.88;;;4.50;99.90;;;;;;4437079;32;20102;-70
2023/03/04 05:25:46;;;;;;;0.57;0.57;;;4.50;99.90;;;;;;4437968;32;20150;-71
2023/03/04 05:28:12;;;;;;;0.85;0.52;;;4.50;99.90;;;;;;4439087;32;20081;-69
2023/03/04 05:30:40;;;;;;;3.83;1.48;;;4.50;99.90;;;;;;4438156;32;20171;-69
2023/03/04 05:33:07;;;;;;;0.40;0.40;;;4.60;99.90;;;;;;4438800;32;20070;-72
2023/03/04 05:35:34;;;;;;;3.30;0.95;;;4.60;99.90;;;;;;4436776;32;20104;-74
2023/03/04 05:38:00;;;;;;;0.70;0.70;;;4.60;99.90;;;;;;4437720;32;20118;-71
2023/03/04 05:40:25;;;;;;;1.75;1.33;;;4.60;99.90;;;;;;4438595;32;20077;-70
2023/03/04 05:42:51;;;;;;;0.55;0.55;;;4.60;99.90;;;;;;4436468;32;20057;-70
2023/03/04 05:45:16;;;;;;;0.30;0.30;;;4.60;99.90;;;;;;4438551;32;20131;-69
2023/03/04 05:47:43;;;;;;;7.78;1.42;;;4.60;99.90;;;;;;4437216;32;20101;-69
2023/03/04 05:50:09;;;;;;;4.78;0.57;;;4.60;99.90;;;;;;4436476;32;20085;-73
2023/03/04 05:52:34;;;;;;;0.40;0.40;;;4.70;99.90;;;;;;4435455;32;20109;-71
2023/03/04 05:55:00;;;;;;;0.30;0.30;;;4.70;99.90;;;;;;4438846;32;20089;-70
2023/03/04 05:57:25;;;;;;;0.73;0.73;;;4.70;99.90;;;;;;4437064;32;20105;-69
2023/03/04 05:59:51;;;;;;;0.30;0.30;;;4.80;99.90;;;;;;4438927;32;20080;-70
2023/03/04 06:02:16;;;;;;;0.45;0.45;;;4.70;99.90;;;;;;4437416;32;20069;-70
2023/03/04 06:04:42;;;;;;;0.62;0.62;;;4.80;99.90;;;;;;4438533;32;20159;-72
2023/03/04 06:07:07;;;;;;;0.60;0.60;;;4.80;99.90;;;;;;4437732;32;20425;-71
2023/03/04 06:09:33;;;;;;;0.77;0.65;;;4.80;99.90;;;;;;4437591;32;20120;-73
2023/03/04 06:11:58;;;;;;;0.55;0.55;;;4.80;99.90;;;;;;4438818;32;20082;-73
2023/03/04 06:14:24;;;;;;;0.43;0.43;;;4.80;99.90;;;;;;4436998;32;20097;-73
2023/03/04 06:16:49;;;;;;;0.98;0.95;;;4.70;99.90;;;;;;4437258;32;20602;-73
2023/03/04 06:19:15;;;;;;;1.80;1.50;;;4.70;99.90;;;;;;4437005;32;20635;-73
2023/03/04 06:21:40;;;;;;;0.40;0.40;;;4.70;99.90;;;;;;4437260;32;20086;-73
2023/03/04 06:24:06;;;;;;;0.47;0.47;;;4.70;99.90;;;;;;4437243;32;20545;-73
2023/03/04 06:26:31;;;;;;;0.62;0.62;;;4.70;99.90;;;;;;4436390;32;20093;-73
2023/03/04 06:28:57;;;;;;;1.15;1.05;;;4.80;99.90;;;;;;4439019;32;20555;-73
2023/03/04 06:31:22;;;;;;;0.95;0.95;;;4.70;99.90;;;;;;4438919;32;20096;-73
2023/03/04 06:33:48;;;;;;;3.10;1.55;;;4.80;99.90;;;;;;4436664;32;20156;-73
2023/03/04 06:36:13;;;;;;;4.28;1.52;;;4.80;99.90;;;;;;4434630;32;20126;-73
2023/03/04 06:38:39;;;;;;;0.37;0.37;;;4.80;99.90;;;;;;4436638;32;20060;-73
2023/03/04 06:41:06;;;;;;;0.40;0.40;;;4.80;99.90;;;;;;4436620;32;20105;-72
2023/03/04 06:43:32;;;;;;;0.50;0.50;;;4.80;99.90;;;;;;4437771;32;20067;-73
2023/03/04 06:45:58;;;;;;;0.60;0.60;;;4.80;99.90;;;;;;4437642;32;20430;-73
2023/03/04 06:48:24;;;;;;;0.52;0.52;;;4.80;99.90;;;;;;4435750;32;20073;-73
2023/03/04 06:50:49;;;;;;;1.65;1.30;;;4.80;99.90;;;;;;4437128;32;20106;-73
2023/03/04 06:53:15;;;;;;;0.57;0.57;;;4.80;99.90;;;;;;4436923;32;20085;-73
2023/03/04 06:55:40;;;;;;;1.15;0.88;;;4.80;99.90;;;;;;4436012;32;20092;-73
2023/03/04 06:58:06;;;;;;;0.40;0.40;;;4.90;99.90;;;;;;4438563;32;20151;-73
2023/03/04 07:00:31;;;;;;;0.60;0.60;;;4.90;99.90;;;;;;4437623;32;20521;-73
2023/03/04 07:02:58;;;;;;;0.40;0.40;;;4.90;99.90;;;;;;4437017;32;20069;-72
2023/03/04 07:05:24;;;;;;;0.47;0.47;;;4.90;99.90;;;;;;4437688;32;20058;-72
2023/03/04 07:07:49;;;;;;;3.05;1.15;;;4.90;99.90;;;;;;4436409;32;20159;-72
2023/03/04 07:10:16;;;;;;;0.40;0.40;;;4.90;99.90;;;;;;4436584;32;20085;-72
2023/03/04 07:12:42;;;;;;;0.40;0.40;;;4.90;99.90;;;;;;4437231;32;20191;-72
2023/03/04 07:15:08;;;;;;;0.55;0.55;;;4.90;99.90;;;;;;4439511;32;20760;-72
2023/03/04 07:17:33;;;;;;;0.30;0.30;;;4.90;99.90;;;;;;4438236;32;20065;-72
2023/03/04 07:19:59;;;;;;;1.33;0.70;;;4.90;99.90;;;;;;4437423;32;20405;-72
2023/03/04 07:22:24;;;;;;;0.40;0.40;;;4.90;99.90;;;;;;4437489;32;20093;-73
2023/03/04 07:24:50;;;;;;;5.12;0.95;;;5.00;99.90;;;;;;4437761;32;20128;-72
2023/03/04 07:27:15;;;;;;;0.80;0.80;;;5.10;99.90;;;;;;4434675;32;20084;-72
2023/03/04 07:29:41;;;;;;;0.32;0.32;;;5.10;99.90;;;;;;4436279;32;20128;-73
2023/03/04 07:32:08;;;;;;;0.70;0.70;;;5.10;99.90;;;;;;4437074;32;20097;-72
2023/03/04 07:34:33;;;;;;;0.70;0.70;;;5.00;99.90;;;;;;4435175;32;20543;-73
2023/03/04 07:36:59;;;;;;;0.40;0.40;;;5.00;99.90;;;;;;4435664;32;20122;-73
2023/03/04 07:39:24;;;;;;;0.40;0.40;;;4.90;99.90;;;;;;4435567;32;20385;-72
2023/03/04 07:41:50;;;;;;;0.40;0.40;;;5.00;99.90;;;;;;4436818;32;20077;-72
2023/03/04 07:44:15;;;;;;;3.30;1.08;;;5.00;99.90;;;;;;4434922;32;20101;-72
2023/03/04 07:46:41;;;;;;;2.28;1.02;;;5.10;99.90;;;;;;4435297;32;20498;-72
2023/03/04 07:49:07;;;;;;;1.37;1.27;;;5.10;99.90;;;;;;4435140;32;20629;-72
2023/03/04 07:51:33;;;;;;;0.88;0.88;;;5.10;99.90;;;;;;4435296;32;20101;-73
2023/03/04 07:54:00;;;;;;;0.30;0.30;;;5.10;99.90;;;;;;4435699;32;20077;-72
2023/03/04 07:56:28;;;;;;;0.45;0.45;;;5.20;99.90;;;;;;4439348;32;20057;-71
2023/03/04 07:58:55;;;;;;;1.55;0.95;;;5.10;99.90;;;;;;4436862;32;20085;-72
2023/03/04 08:01:24;;;;;;;0.65;0.50;;;5.20;99.90;;;;;;4438217;32;20130;-72
2023/03/04 08:03:49;;;;;;;0.90;0.90;;;5.10;99.90;;;;;;4434654;32;20212;-73
2023/03/04 08:06:16;;;;;;;4.78;2.15;;;5.10;99.90;;;;;;4438044;32;20121;-72
2023/03/04 08:08:42;;;;;;;0.62;0.62;;;5.00;99.90;;;;;;4435947;32;20060;-72
2023/03/04 08:11:11;;;;;;;0.50;0.50;;;4.90;99.90;;;;;;4435862;32;20131;-72
2023/03/04 08:13:36;;;;;;;0.40;0.40;;;5.00;99.90;;;;;;4436198;32;20086;-73
2023/03/04 08:16:02;;;;;;;0.45;0.45;;;5.10;99.90;;;;;;4435938;32;20452;-72
2023/03/04 08:18:28;;;;;;;1.65;1.08;;;5.10;99.90;;;;;;4436297;32;20076;-71
2023/03/04 08:20:53;;;;;;;0.70;0.70;;;5.20;99.90;;;;;;4436990;32;21381;-72
2023/03/04 08:23:19;;;;;;;0.37;0.37;;;5.20;99.90;;;;;;4435076;32;20458;-72
2023/03/04 08:25:45;;;;;;;0.45;0.45;;;5.30;99.90;;;;;;4435325;32;20123;-73
2023/03/04 08:28:12;;;;;;;0.40;0.40;;;5.40;99.90;;;;;;4436582;32;20528;-72
2023/03/04 08:30:38;;;;;;;0.30;0.30;;;5.40;99.90;;;;;;4437100;32;20062;-73
2023/03/04 08:33:05;;;;;;;0.40;0.40;;;5.40;99.90;;;;;;4436459;32;20082;-73
2023/03/04 08:35:31;;;;;;;3.08;0.68;;;5.30;99.90;;;;;;4433687;32;20540;-73
2023/03/04 08:37:57;;;;;;;0.40;0.40;;;5.40;99.90;;;;;;4435211;32;20081;-73
2023/03/04 08:40:25;;;;;;;1.08;0.85;;;5.40;99.90;;;;;;4436508;32;20054;-74
2023/03/04 08:42:50;;;;;;;0.50;0.50;;;5.50;99.90;;;;;;4435707;32;20160;-73
2023/03/04 08:45:16;;;;;;;0.40;0.40;;;5.60;99.90;;;;;;4435291;32;20129;-73
2023/03/04 08:47:42;;;;;;;0.30;0.30;;;5.60;99.90;;;;;;4435544;32;20095;-71
2023/03/04 08:50:08;;;;;;;0.30;0.30;;;5.70;99.90;;;;;;4436095;32;20078;-73
2023/03/04 08:52:34;;;;;;;0.50;0.50;;;5.70;99.90;;;;;;4434084;32;20072;-72
2023/03/04 08:55:00;;;;;;;0.68;0.68;;;5.70;99.90;;;;;;4436157;32;20708;-72
2023/03/04 08:57:25;;;;;;;0.50;0.50;;;5.70;99.90;;;;;;4441417;32;20061;-72
2023/03/04 08:59:51;;;;;;;0.50;0.50;;;5.80;99.90;;;;;;4437316;32;20104;-70
2023/03/04 09:02:16;;;;;;;1.45;0.80;;;5.70;99.90;;;;;;4439210;32;20139;-73
2023/03/04 09:04:42;;;;;;;0.40;0.40;;;5.70;99.90;;;;;;4438905;32;20133;-69
2023/03/04 09:07:08;;;;;;;0.60;0.60;;;5.70;99.90;;;;;;4438089;32;20078;-70
2023/03/04 09:09:34;;;;;;;0.60;0.60;;;5.70;99.90;;;;;;4437119;32;21193;-72
2023/03/04 09:11:59;;;;;;;1.27;1.08;;;5.70;99.90;;;;;;4437463;32;20073;-70
2023/03/04 09:14:25;;;;;;;0.32;0.32;;;5.60;99.90;;;;;;4438745;32;20131;-74
2023/03/04 09:16:50;;;;;;;0.35;0.35;;;5.60;99.90;;;;;;4439615;32;20121;-75
2023/03/04 09:19:16;;;;;;;0.50;0.50;;;5.60;99.90;;;;;;4438769;32;20552;-75
2023/03/04 09:21:41;;;;;;;0.40;0.40;;;5.80;99.90;;;;;;4438039;32;20199;-72
2023/03/04 09:24:07;;;;;;;0.40;0.40;;;5.80;99.90;;;;;;4438597;32;20093;-72
2023/03/04 09:26:32;;;;;;;0.40;0.40;;;5.80;99.90;;;;;;4436280;32;20434;-72
2023/03/04 09:28:59;;;;;;;0.50;0.50;;;5.90;99.90;;;;;;4439057;32;20077;-72
2023/03/04 09:31:26;;;;;;;0.30;0.30;;;6.00;99.90;;;;;;4435175;32;20626;-71
2023/03/04 09:33:53;;;;;;;0.30;0.30;;;6.00;99.90;;;;;;4434732;32;20591;-72
2023/03/04 09:36:19;;;;;;;0.40;0.40;;;6.00;99.90;;;;;;4438863;32;20465;-74
2023/03/04 09:38:45;;;;;;;0.40;0.40;;;6.10;99.90;;;;;;4436546;32;20228;-72
2023/03/04 09:41:22;;;;;;;0.65;0.65;;;6.10;99.90;;;;;;4437923;32;20072;-73
2023/03/04 09:43:49;;;;;;;0.30;0.30;;;6.10;99.90;;;;;;4438155;32;20081;-74
2023/03/04 09:46:21;;;;;;;1.23;0.60;;;6.20;99.90;;;;;;4436362;32;20102;-73
2023/03/04 09:48:50;;;;;;;0.45;0.45;;;6.30;99.90;;;;;;4438757;32;20085;-72
2023/03/04 09:51:27;;;;;;;0.35;0.35;;;6.30;99.90;;;;;;4437174;32;20089;-73
2023/03/04 09:54:16;;;;;;;0.40;0.40;;;6.50;99.90;;;;;;4437336;32;20076;-72
2023/03/04 09:56:42;;;;;;;0.30;0.30;;;6.50;99.90;;;;;;4436614;32;20073;-72
2023/03/04 09:59:31;;;;;;;0.60;0.60;;;6.40;99.90;;;;;;4437264;32;20552;-72
2023/03/04 10:01:59;;;;;;;0.40;0.40;;;6.40;99.90;;;;;;4425380;32;20101;-72
2023/03/04 10:04:49;;;;;;;0.30;0.30;;;6.50;99.90;;;;;;4437555;32;20109;-72
2023/03/04 10:07:27;;;;;;;1.10;0.77;;;6.50;99.90;;;;;;4425109;32;20104;-72
2023/03/04 10:09:59;;;;;;;25.83;0.73;;;6.60;99.90;;;;;;4422960;32;20272;-72
2023/03/04 10:12:29;;;;;;;0.40;0.40;;;6.60;99.90;;;;;;4439175;32;20061;-72
2023/03/04 10:15:02;;;;;;;0.60;0.60;;;6.70;99.90;;;;;;4435558;32;20089;-74
2023/03/04 10:17:37;;;;;;;0.40;0.40;;;6.70;99.90;;;;;;4437439;32;20119;-73
2023/03/04 10:20:06;;;;;;;2.40;0.98;;;6.70;99.90;;;;;;4438312;32;20097;-73
2023/03/04 10:22:39;;;;;;;31.35;0.77;;;6.70;99.90;;;;;;4437505;32;20096;-73
2023/03/04 10:25:27;;;;;;;0.30;0.30;;;6.70;99.90;;;;;;4436592;32;20064;-72
2023/03/04 10:27:57;;;;;;;0.57;0.40;;;6.70;99.90;;;;;;4426406;32;20057;-74
2023/03/04 10:30:43;;;;;;;15.10;0.68;;;6.70;99.90;;;;;;4437361;32;20065;-72
2023/03/04 10:33:13;;;;;;;0.40;0.40;;;6.80;99.90;;;;;;4426144;32;20065;-73
2023/03/04 10:35:43;;;;;;;0.40;0.40;;;6.80;99.90;;;;;;4436702;32;20068;-73
2023/03/04 10:38:12;;;;;;;0.50;0.50;;;7.00;99.90;;;;;;4434650;32;20199;-72
2023/03/04 10:40:40;;;;;;;0.80;0.80;;;7.00;99.90;;;;;;4433876;32;20072;-73
2023/03/04 10:43:14;;;;;;;14.73;0.95;;;7.00;99.90;;;;;;4437208;32;20073;-73
2023/03/04 10:45:40;;;;;;;0.85;0.85;;;7.10;99.90;;;;;;4435519;32;20540;-73
2023/03/04 10:48:06;;;;;;;0.37;0.37;;;7.20;99.90;;;;;;4435357;32;20097;-73
2023/03/04 10:50:31;;;;;;;0.50;0.50;;;7.10;99.90;;;;;;4434898;32;20446;-72
2023/03/04 10:52:57;;;;;;;0.50;0.50;;;7.20;99.90;;;;;;4436118;32;20064;-71
2023/03/04 10:55:27;;;;;;;0.68;0.50;;;7.20;99.90;;;;;;4435359;32;20500;-74
2023/03/04 10:57:55;;;;;;;0.50;0.50;;;7.30;99.90;;;;;;4436360;32;20192;-74
2023/03/04 11:00:32;;;;;;;0.62;0.62;;;7.20;99.90;;;;;;4437342;32;20585;-73
2023/03/04 11:03:21;;;;;;;0.30;0.30;;;7.20;99.90;;;;;;4437169;32;20053;-73
2023/03/04 11:05:46;;;;;;;0.60;0.60;;;7.30;99.90;;;;;;4425403;32;20460;-73
2023/03/04 11:08:18;;;;;;;0.52;0.52;;;7.20;99.90;;;;;;4436376;32;20161;-72
2023/03/04 11:10:44;;;;;;;0.52;0.52;;;7.30;99.90;;;;;;4436655;32;20367;-73
2023/03/04 11:13:16;;;;;;;0.70;0.70;;;7.40;99.90;;;;;;4437499;32;20101;-72
2023/03/04 11:16:04;;;;;;;0.80;0.80;;;7.40;99.90;;;;;;4437664;32;20057;-73
2023/03/04 11:18:55;;;;;;;9.13;2.15;;;7.50;99.90;;;;;;4425022;32;20124;-73
2023/03/04 11:21:23;;;;;;;0.30;0.30;;;7.50;99.90;;;;;;4438195;32;20515;-72
2023/03/04 11:23:54;;;;;;;0.98;0.82;;;7.40;99.90;;;;;;4438340;32;20090;-73
2023/03/04 11:26:27;;;;;;;14.20;1.45;;;7.40;99.90;;;;;;4436737;32;20610;-72
2023/03/04 11:28:59;;;;;;;5.00;1.48;;;7.20;99.90;;;;;;4437287;32;20081;-73
2023/03/04 11:31:31;;;;;;;0.40;0.40;;;7.30;99.90;;;;;;4435953;32;20076;-74
2023/03/04 11:34:07;;;;;;;0.30;0.30;;;7.30;99.90;;;;;;4435808;32;20156;-74
2023/03/04 11:37:02;;;;;;;0.75;0.75;;;7.30;99.90;;;;;;4435472;32;20130;-73
2023/03/04 11:39:36;;;;;;;2.00;1.10;;;7.40;99.90;;;;;;4423716;32;20189;-72
2023/03/04 11:42:06;;;;;;;1.83;1.45;;;7.30;99.90;;;;;;4432236;32;92502;-72
2023/03/04 11:44:32;;;;;;;0.85;0.50;;;7.30;99.90;;;;;;4433576;32;20096;-73
2023/03/04 11:47:37;;;;;;;0.62;0.62;;;7.30;99.90;;;;;;4434408;32;20504;-73
2023/03/04 11:50:09;;;;;;;0.50;0.50;;;7.30;99.90;;;;;;4416635;32;20108;-73
2023/03/04 11:53:03;;;;;;;0.30;0.30;;;7.30;99.90;;;;;;4435535;32;20147;-72
2023/03/04 11:55:40;;;;;;;0.65;0.65;;;7.40;99.90;;;;;;4424787;32;20466;-73
2023/03/04 11:58:34;;;;;;;0.40;0.40;;;7.30;99.90;;;;;;4435667;32;20120;-74
2023/03/04 12:01:10;;;;;;;0.70;0.70;;;7.30;99.90;;;;;;4435898;32;20508;-73
2023/03/04 12:03:56;;;;;;;0.40;0.40;;;7.30;99.90;;;;;;4434111;32;20095;-73
2023/03/04 12:06:50;;;;;;;2.83;0.82;;;7.30;99.90;;;;;;4435254;32;20121;-72
2023/03/04 12:09:41;;;;;;;0.90;0.62;;;7.10;99.90;;;;;;4423724;32;20093;-73
2023/03/04 12:12:27;;;;;;;1.27;0.98;;;7.10;99.90;;;;;;4426750;32;20057;-72
2023/03/04 12:15:09;;;;;;;0.50;0.50;;;7.00;99.90;;;;;;4437550;32;20539;-71
2023/03/04 12:17:43;;;;;;;1.65;0.98;;;7.00;99.90;;;;;;4436230;32;20057;-71
2023/03/04 12:20:34;;;;;;;0.40;0.40;;;7.00;99.90;;;;;;4439344;32;20103;-72
2023/03/04 12:23:27;;;;;;;0.40;0.40;;;7.00;99.90;;;;;;4428678;32;20068;-73
2023/03/04 12:25:59;;;;;;;3.05;1.25;;;7.10;99.90;;;;;;4429635;32;20105;-75
2023/03/04 12:28:39;;;;;;;0.80;0.68;;;7.10;99.90;;;;;;4437813;32;20076;-77
2023/03/04 12:31:41;;;;;;;0.40;0.40;;;7.00;99.90;;;;;;4427330;32;20080;-76
2023/03/04 12:34:30;;;;;;;0.55;0.55;;;6.90;99.90;;;;;;4428973;32;20082;-78
2023/03/04 12:37:24;;;;;;;2.92;1.48;;;6.90;99.90;;;;;;4428630;32;20077;-76
2023/03/04 12:40:14;;;;;;;0.32;0.32;;;6.90;99.90;;;;;;4428879;32;20135;-77
2023/03/04 12:43:07;;;;;;;0.50;0.50;;;6.80;99.90;;;;;;4442039;32;20112;-78
2023/03/04 12:45:44;;;;;;;0.40;0.40;;;6.90;99.90;;;;;;4440166;32;20543;-77
2023/03/04 12:48:17;;;;;;;1.75;1.02;;;7.00;99.90;;;;;;4438250;32;20124;-75
2023/03/04 12:51:03;;;;;;;0.30;0.30;;;7.10;99.90;;;;;;4440786;32;20072;-73
2023/03/04 12:53:37;;;;;;;0.57;0.57;;;7.10;99.90;;;;;;4428386;32;20070;-72
2023/03/04 12:56:05;;;;;;;1.75;1.12;;;7.20;99.90;;;;;;4435440;32;20144;-72
2023/03/04 12:58:32;;;;;;;2.20;1.05;;;7.30;99.90;;;;;;4437301;32;20336;-74
2023/03/04 13:01:28;;;;;;;0.60;0.55;;;7.30;99.90;;;;;;4437985;32;20100;-74
2023/03/04 13:04:20;;;;;;;0.32;0.32;;;7.30;99.90;;;;;;4427571;32;20462;-74
2023/03/04 13:07:07;;;;;;;0.60;0.60;;;7.30;99.90;;;;;;4426441;32;20090;-74